createdAt,value
2022-10-18T00:00:01.224Z,11.60
2022-10-18T00:00:31.827Z,11.62
2022-10-18T00:01:02.397Z,11.63
2022-10-18T00:01:32.941Z,11.63
2022-10-18T00:02:03.639Z,11.66
2022-10-18T00:02:34.386Z,11.66
2022-10-18T00:03:05.013Z,11.66
2022-10-18T00:03:35.666Z,11.67
2022-10-18T00:04:06.265Z,11.66
2022-10-18T00:04:36.819Z,11.66
2022-10-18T00:05:07.413Z,11.64
2022-10-18T00:05:37.957Z,11.63
2022-10-18T00:06:08.541Z,11.62
2022-10-18T00:06:42.596Z,11.59
2022-10-18T00:07:10.005Z,11.57
2022-10-18T00:07:40.580Z,11.56
2022-10-18T00:08:11.182Z,11.56
2022-10-18T00:08:41.749Z,11.53
2022-10-18T00:09:12.342Z,11.51
2022-10-18T00:09:42.924Z,11.49
2022-10-18T00:10:13.491Z,11.49
2022-10-18T00:10:44.062Z,11.48
2022-10-18T00:11:14.699Z,11.46
2022-10-18T00:11:45.269Z,11.48
2022-10-18T00:12:15.836Z,11.45
2022-10-18T00:13:16.936Z,11.42
2022-10-18T00:13:47.502Z,11.39
2022-10-18T00:14:18.084Z,11.39
2022-10-18T00:14:48.667Z,11.36
2022-10-18T00:15:19.210Z,11.38
2022-10-18T00:15:49.807Z,11.39
2022-10-18T00:16:20.331Z,11.38
2022-10-18T00:16:50.878Z,11.41
2022-10-18T00:17:21.418Z,11.41
2022-10-18T00:17:51.977Z,11.42
2022-10-18T00:18:22.583Z,11.45
2022-10-18T00:18:53.155Z,11.46
2022-10-18T00:19:25.972Z,11.45
2022-10-18T00:19:54.395Z,11.44
2022-10-18T00:20:24.969Z,11.44
2022-10-18T00:20:55.546Z,11.41
2022-10-18T00:21:26.108Z,11.41
2022-10-18T00:21:56.679Z,11.38
2022-10-18T00:22:27.474Z,11.39
2022-10-18T00:22:58.154Z,11.36
2022-10-18T00:23:28.750Z,11.38
2022-10-18T00:23:59.325Z,11.38
2022-10-18T00:24:29.907Z,11.36
2022-10-18T00:25:00.496Z,11.38
2022-10-18T00:25:31.022Z,11.38
2022-10-18T00:26:01.608Z,11.36
2022-10-18T00:26:32.198Z,11.38
2022-10-18T00:27:02.786Z,11.36
2022-10-18T00:27:33.377Z,11.36
2022-10-18T00:28:03.922Z,11.38
2022-10-18T00:28:34.637Z,11.36
2022-10-18T00:29:05.203Z,11.36
2022-10-18T00:30:05.563Z,11.38
2022-10-18T00:30:37.202Z,11.39
2022-10-18T00:31:07.797Z,11.38
2022-10-18T00:31:38.393Z,11.39
2022-10-18T00:32:08.948Z,11.41
2022-10-18T00:32:39.531Z,11.41
2022-10-18T00:33:10.119Z,11.41
2022-10-18T00:33:40.680Z,11.39
2022-10-18T00:34:11.252Z,11.38
2022-10-18T00:34:41.848Z,11.36
2022-10-18T00:35:12.424Z,11.31
2022-10-18T00:35:42.997Z,11.27
2022-10-18T00:36:13.568Z,11.24
2022-10-18T00:36:44.154Z,11.20
2022-10-18T00:37:14.729Z,11.19
2022-10-18T00:37:45.331Z,11.13
2022-10-18T00:38:15.895Z,11.09
2022-10-18T00:38:46.438Z,11.05
2022-10-18T00:39:17.017Z,11.03
2022-10-18T00:39:47.638Z,10.98
2022-10-18T00:40:18.218Z,10.98
2022-10-18T00:40:48.789Z,10.98
2022-10-18T00:41:19.334Z,11.01
2022-10-18T00:41:49.912Z,11.05
2022-10-18T00:42:20.475Z,11.09
2022-10-18T00:42:51.074Z,11.12
2022-10-18T00:43:21.649Z,11.13
2022-10-18T00:43:52.198Z,11.17
2022-10-18T00:44:22.806Z,11.17
2022-10-18T00:44:53.553Z,11.20
2022-10-18T00:45:24.176Z,11.20
2022-10-18T00:45:54.751Z,11.21
2022-10-18T00:46:25.344Z,11.20
2022-10-18T00:46:55.867Z,11.21
2022-10-18T00:47:26.423Z,11.23
2022-10-18T00:47:56.962Z,11.23
2022-10-18T00:48:27.533Z,11.21
2022-10-18T00:48:58.114Z,11.23
2022-10-18T00:49:28.713Z,11.21
2022-10-18T00:49:59.277Z,11.23
2022-10-18T00:50:29.856Z,11.23
2022-10-18T00:51:00.436Z,11.21
2022-10-18T00:51:31.007Z,11.19
2022-10-18T00:52:01.571Z,11.13
2022-10-18T00:52:32.432Z,11.11
2022-10-18T00:53:03.158Z,11.05
2022-10-18T00:53:33.738Z,11.03
2022-10-18T00:54:04.328Z,11.02
2022-10-18T00:54:34.914Z,11.02
2022-10-18T00:55:05.515Z,11.03
2022-10-18T00:55:36.090Z,11.02
2022-10-18T00:56:06.648Z,11.01
2022-10-18T00:56:37.214Z,11.01
2022-10-18T00:57:07.801Z,11.01
2022-10-18T00:57:38.367Z,11.02
2022-10-18T00:58:08.924Z,11.03
2022-10-18T00:58:39.499Z,11.06
2022-10-18T00:59:10.079Z,11.06
2022-10-18T00:59:40.660Z,11.09
2022-10-18T01:00:11.249Z,11.09
2022-10-18T01:00:41.831Z,11.09
2022-10-18T01:01:12.444Z,11.05
2022-10-18T01:01:43.114Z,11.06
2022-10-18T01:02:13.780Z,11.08
2022-10-18T01:02:44.318Z,11.08
2022-10-18T01:03:14.895Z,11.08
2022-10-18T01:03:45.482Z,11.11
2022-10-18T01:04:16.089Z,11.11
2022-10-18T01:04:46.675Z,11.12
2022-10-18T01:05:17.235Z,11.13
2022-10-18T01:05:47.819Z,11.13
2022-10-18T01:06:18.414Z,11.13
2022-10-18T01:06:49.052Z,11.17
2022-10-18T01:07:19.671Z,11.19
2022-10-18T01:07:50.250Z,11.17
2022-10-18T01:08:20.809Z,11.19
2022-10-18T01:08:51.396Z,11.20
2022-10-18T01:09:21.995Z,11.23
2022-10-18T01:09:52.564Z,11.23
2022-10-18T01:10:23.182Z,11.23
2022-10-18T01:10:53.749Z,11.24
2022-10-18T01:11:24.318Z,11.24
2022-10-18T01:11:54.893Z,11.24
2022-10-18T01:12:25.465Z,11.23
2022-10-18T01:12:56.049Z,11.24
2022-10-18T01:13:26.620Z,11.26
2022-10-18T01:13:57.189Z,11.24
2022-10-18T01:14:27.783Z,11.24
2022-10-18T01:14:58.374Z,11.24
2022-10-18T01:15:28.976Z,11.24
2022-10-18T01:15:59.547Z,11.24
2022-10-18T01:16:30.101Z,11.23
2022-10-18T01:17:00.685Z,11.21
2022-10-18T01:17:31.462Z,11.17
2022-10-18T01:18:02.270Z,11.13
2022-10-18T01:18:32.872Z,11.12
2022-10-18T01:19:03.435Z,11.05
2022-10-18T01:19:34.002Z,11.03
2022-10-18T01:20:04.580Z,11.01
2022-10-18T01:20:35.151Z,10.99
2022-10-18T01:21:05.747Z,10.98
2022-10-18T01:21:36.375Z,10.93
2022-10-18T01:22:06.939Z,10.91
2022-10-18T01:22:37.494Z,10.93
2022-10-18T01:23:08.071Z,10.91
2022-10-18T01:23:38.654Z,10.90
2022-10-18T01:24:09.212Z,10.91
2022-10-18T01:24:39.782Z,10.90
2022-10-18T01:25:10.358Z,10.91
2022-10-18T01:25:40.940Z,10.94
2022-10-18T01:26:11.536Z,10.98
2022-10-18T01:26:42.105Z,10.95
2022-10-18T01:27:12.710Z,10.95
2022-10-18T01:27:43.282Z,10.93
2022-10-18T01:28:13.853Z,10.93
2022-10-18T01:28:44.496Z,10.90
2022-10-18T01:29:15.091Z,10.90
2022-10-18T01:29:45.694Z,10.88
2022-10-18T01:30:16.246Z,10.88
2022-10-18T01:30:46.791Z,10.88
2022-10-18T01:31:17.380Z,10.84
2022-10-18T01:31:47.953Z,10.87
2022-10-18T01:32:18.518Z,10.87
2022-10-18T01:32:49.083Z,10.87
2022-10-18T01:33:19.614Z,10.87
2022-10-18T01:33:50.241Z,10.86
2022-10-18T01:34:20.817Z,10.86
2022-10-18T01:34:51.391Z,10.86
2022-10-18T01:35:21.946Z,10.84
2022-10-18T01:35:52.512Z,10.84
2022-10-18T01:36:23.112Z,10.86
2022-10-18T01:36:53.692Z,10.88
2022-10-18T01:37:24.271Z,10.87
2022-10-18T01:37:54.848Z,10.88
2022-10-18T01:38:25.427Z,10.87
2022-10-18T01:38:55.957Z,10.86
2022-10-18T01:39:26.535Z,10.87
2022-10-18T01:39:57.101Z,10.86
2022-10-18T01:40:27.665Z,10.83
2022-10-18T01:40:58.229Z,10.81
2022-10-18T01:41:28.835Z,10.83
2022-10-18T01:41:59.405Z,10.83
2022-10-18T01:42:29.970Z,10.84
2022-10-18T01:43:00.638Z,10.81
2022-10-18T01:43:31.211Z,10.83
2022-10-18T01:44:01.789Z,10.84
2022-10-18T01:44:32.361Z,10.83
2022-10-18T01:45:02.950Z,10.78
2022-10-18T01:45:33.529Z,10.80
2022-10-18T01:46:04.100Z,10.80
2022-10-18T01:46:34.664Z,10.78
2022-10-18T01:47:05.246Z,10.76
2022-10-18T01:47:35.852Z,10.76
2022-10-18T01:48:06.373Z,10.80
2022-10-18T01:48:37.017Z,10.80
2022-10-18T01:49:07.585Z,10.78
2022-10-18T01:49:38.164Z,10.81
2022-10-18T01:50:08.744Z,10.81
2022-10-18T01:50:39.294Z,10.86
2022-10-18T01:51:09.874Z,10.88
2022-10-18T01:51:40.464Z,10.90
2022-10-18T01:52:11.031Z,10.90
2022-10-18T01:52:41.616Z,10.91
2022-10-18T01:53:12.204Z,10.91
2022-10-18T01:53:42.778Z,10.93
2022-10-18T01:54:13.326Z,10.93
2022-10-18T01:54:43.894Z,10.93
2022-10-18T01:55:14.457Z,10.91
2022-10-18T01:55:45.033Z,10.91
2022-10-18T01:56:15.620Z,10.91
2022-10-18T01:56:46.203Z,10.91
2022-10-18T01:57:16.791Z,10.90
2022-10-18T01:57:47.387Z,10.91
2022-10-18T01:58:17.985Z,10.90
2022-10-18T01:58:48.550Z,10.93
2022-10-18T01:59:19.139Z,10.90
2022-10-18T01:59:49.682Z,10.90
2022-10-18T02:00:20.242Z,10.88
2022-10-18T02:00:50.913Z,10.88
2022-10-18T02:01:21.490Z,10.83
2022-10-18T02:01:52.065Z,10.81
2022-10-18T02:02:22.639Z,10.75
2022-10-18T02:02:53.234Z,10.73
2022-10-18T02:03:23.778Z,10.75
2022-10-18T02:03:54.360Z,10.76
2022-10-18T02:04:24.932Z,10.73
2022-10-18T02:04:55.487Z,10.70
2022-10-18T02:05:26.074Z,10.68
2022-10-18T02:05:56.761Z,10.65
2022-10-18T02:06:27.291Z,10.66
2022-10-18T02:06:57.929Z,10.65
2022-10-18T02:07:28.501Z,10.70
2022-10-18T02:08:12.197Z,10.69
2022-10-18T02:08:29.848Z,10.69
2022-10-18T02:09:00.413Z,10.70
2022-10-18T02:09:30.991Z,10.72
2022-10-18T02:10:01.701Z,10.72
2022-10-18T02:10:32.300Z,10.72
2022-10-18T02:11:02.870Z,10.70
2022-10-18T02:11:33.442Z,10.68
2022-10-18T02:12:04.013Z,10.65
2022-10-18T02:12:34.590Z,10.65
2022-10-18T02:13:05.188Z,10.63
2022-10-18T02:13:35.734Z,10.62
2022-10-18T02:14:06.273Z,10.62
2022-10-18T02:14:36.876Z,10.65
2022-10-18T02:15:07.437Z,10.65
2022-10-18T02:15:38.024Z,10.66
2022-10-18T02:16:08.591Z,10.68
2022-10-18T02:16:39.170Z,10.68
2022-10-18T02:17:09.758Z,10.69
2022-10-18T02:17:40.351Z,10.70
2022-10-18T02:18:10.903Z,10.72
2022-10-18T02:18:41.432Z,10.73
2022-10-18T02:19:12.046Z,10.75
2022-10-18T02:19:42.618Z,10.73
2022-10-18T02:20:13.193Z,10.76
2022-10-18T02:20:43.798Z,10.78
2022-10-18T02:21:14.404Z,10.83
2022-10-18T02:21:44.995Z,10.86
2022-10-18T02:22:15.555Z,10.86
2022-10-18T02:22:46.108Z,10.88
2022-10-18T02:23:16.671Z,10.90
2022-10-18T02:23:47.285Z,10.91
2022-10-18T02:24:17.877Z,10.91
2022-10-18T02:24:48.534Z,10.91
2022-10-18T02:25:19.118Z,10.93
2022-10-18T02:25:49.702Z,10.93
2022-10-18T02:26:20.272Z,10.93
2022-10-18T02:26:50.860Z,10.93
2022-10-18T02:27:21.438Z,10.90
2022-10-18T02:27:52.018Z,10.88
2022-10-18T02:28:22.593Z,10.86
2022-10-18T02:28:53.199Z,10.84
2022-10-18T02:29:23.777Z,10.81
2022-10-18T02:29:54.334Z,10.78
2022-10-18T02:30:24.896Z,10.78
2022-10-18T02:30:55.470Z,10.81
2022-10-18T02:31:26.034Z,10.81
2022-10-18T02:31:56.621Z,10.81
2022-10-18T02:32:27.204Z,10.78
2022-10-18T02:32:57.819Z,10.76
2022-10-18T02:33:28.431Z,10.75
2022-10-18T02:33:58.982Z,10.72
2022-10-18T02:34:29.570Z,10.70
2022-10-18T02:35:00.163Z,10.68
2022-10-18T02:35:30.757Z,10.66
2022-10-18T02:36:01.332Z,10.65
2022-10-18T02:36:31.909Z,10.60
2022-10-18T02:37:02.485Z,10.58
2022-10-18T02:37:33.052Z,10.60
2022-10-18T02:38:03.631Z,10.62
2022-10-18T02:38:34.214Z,10.60
2022-10-18T02:39:04.806Z,10.58
2022-10-18T02:39:35.382Z,10.57
2022-10-18T02:40:05.959Z,10.57
2022-10-18T02:40:36.538Z,10.57
2022-10-18T02:41:07.097Z,10.58
2022-10-18T02:41:37.658Z,10.57
2022-10-18T02:42:08.230Z,10.58
2022-10-18T02:42:38.808Z,10.62
2022-10-18T02:43:09.388Z,10.63
2022-10-18T02:43:39.984Z,10.63
2022-10-18T02:44:10.546Z,10.63
2022-10-18T02:44:41.153Z,10.63
2022-10-18T02:45:11.710Z,10.57
2022-10-18T02:45:42.268Z,10.54
2022-10-18T02:46:12.859Z,10.52
2022-10-18T02:46:43.436Z,10.54
2022-10-18T02:47:14.010Z,10.52
2022-10-18T02:47:44.613Z,10.54
2022-10-18T02:48:15.194Z,10.57
2022-10-18T02:48:45.809Z,10.57
2022-10-18T02:49:16.368Z,10.62
2022-10-18T02:49:46.959Z,10.65
2022-10-18T02:50:17.524Z,10.66
2022-10-18T02:50:48.103Z,10.69
2022-10-18T02:51:18.676Z,10.69
2022-10-18T02:51:49.257Z,10.69
2022-10-18T02:52:19.822Z,10.70
2022-10-18T02:52:50.402Z,10.72
2022-10-18T02:53:20.976Z,10.75
2022-10-18T02:53:51.566Z,10.75
2022-10-18T02:54:22.116Z,10.76
2022-10-18T02:54:52.684Z,10.76
2022-10-18T02:55:23.301Z,10.75
2022-10-18T02:55:53.841Z,10.76
2022-10-18T02:56:24.419Z,10.80
2022-10-18T02:56:54.994Z,10.80
2022-10-18T02:57:25.586Z,10.80
2022-10-18T02:57:56.192Z,10.78
2022-10-18T02:58:26.767Z,10.78
2022-10-18T02:58:57.344Z,10.78
2022-10-18T02:59:27.941Z,10.78
2022-10-18T02:59:58.511Z,10.76
2022-10-18T03:00:29.104Z,10.76
2022-10-18T03:00:59.674Z,10.75
2022-10-18T03:01:30.322Z,10.73
2022-10-18T03:02:00.855Z,10.73
2022-10-18T03:02:31.433Z,10.72
2022-10-18T03:03:02.034Z,10.70
2022-10-18T03:03:32.615Z,10.69
2022-10-18T03:04:03.237Z,10.69
2022-10-18T03:04:33.794Z,10.69
2022-10-18T03:05:04.366Z,10.68
2022-10-18T03:05:34.919Z,10.66
2022-10-18T03:06:05.456Z,10.63
2022-10-18T03:06:36.020Z,10.57
2022-10-18T03:07:06.614Z,10.54
2022-10-18T03:07:37.206Z,10.52
2022-10-18T03:08:07.738Z,10.52
2022-10-18T03:08:38.312Z,10.55
2022-10-18T03:09:08.913Z,10.47
2022-10-18T03:09:39.502Z,10.46
2022-10-18T03:10:10.083Z,10.46
2022-10-18T03:10:40.664Z,10.46
2022-10-18T03:11:11.215Z,10.46
2022-10-18T03:11:41.790Z,10.44
2022-10-18T03:12:12.353Z,10.44
2022-10-18T03:12:42.923Z,10.46
2022-10-18T03:13:13.480Z,10.47
2022-10-18T03:13:44.081Z,10.47
2022-10-18T03:14:14.651Z,10.49
2022-10-18T03:14:45.243Z,10.49
2022-10-18T03:15:15.809Z,10.52
2022-10-18T03:15:46.365Z,10.55
2022-10-18T03:16:16.975Z,10.58
2022-10-18T03:16:47.549Z,10.63
2022-10-18T03:17:18.122Z,10.65
2022-10-18T03:17:48.698Z,10.66
2022-10-18T03:18:19.293Z,10.66
2022-10-18T03:18:49.888Z,10.65
2022-10-18T03:19:20.491Z,10.65
2022-10-18T03:19:51.032Z,10.66
2022-10-18T03:20:21.616Z,10.65
2022-10-18T03:20:52.194Z,10.65
2022-10-18T03:21:22.769Z,10.65
2022-10-18T03:21:53.372Z,10.63
2022-10-18T03:22:23.977Z,10.63
2022-10-18T03:22:54.552Z,10.65
2022-10-18T03:23:25.127Z,10.65
2022-10-18T03:23:55.721Z,10.66
2022-10-18T03:24:26.331Z,10.68
2022-10-18T03:24:56.884Z,10.66
2022-10-18T03:25:27.465Z,10.70
2022-10-18T03:25:58.055Z,10.69
2022-10-18T03:26:28.668Z,10.69
2022-10-18T03:26:59.236Z,10.68
2022-10-18T03:27:30.093Z,10.69
2022-10-18T03:28:00.283Z,10.69
2022-10-18T03:28:30.894Z,10.69
2022-10-18T03:29:01.538Z,10.69
2022-10-18T03:29:32.124Z,10.68
2022-10-18T03:30:02.666Z,10.68
2022-10-18T03:30:33.243Z,10.68
2022-10-18T03:31:03.811Z,10.66
2022-10-18T03:31:34.395Z,10.63
2022-10-18T03:32:04.964Z,10.62
2022-10-18T03:32:35.731Z,10.62
2022-10-18T03:33:06.354Z,10.62
2022-10-18T03:33:36.924Z,10.60
2022-10-18T03:34:07.760Z,10.63
2022-10-18T03:34:38.394Z,10.62
2022-10-18T03:35:08.930Z,10.62
2022-10-18T03:35:39.515Z,10.63
2022-10-18T03:36:10.057Z,10.63
2022-10-18T03:36:40.643Z,10.65
2022-10-18T03:37:11.222Z,10.65
2022-10-18T03:37:41.831Z,10.63
2022-10-18T03:38:12.420Z,10.65
2022-10-18T03:38:42.997Z,10.65
2022-10-18T03:39:13.560Z,10.63
2022-10-18T03:39:44.125Z,10.65
2022-10-18T03:40:14.681Z,10.65
2022-10-18T03:40:45.253Z,10.63
2022-10-18T03:41:15.845Z,10.57
2022-10-18T03:41:46.403Z,10.51
2022-10-18T03:42:16.977Z,10.43
2022-10-18T03:42:47.562Z,10.42
2022-10-18T03:43:18.143Z,10.38
2022-10-18T03:43:48.740Z,10.32
2022-10-18T03:44:19.314Z,10.28
2022-10-18T03:44:49.884Z,10.24
2022-10-18T03:45:20.463Z,10.20
2022-10-18T03:45:51.048Z,10.17
2022-10-18T03:46:21.617Z,10.17
2022-10-18T03:46:52.206Z,10.16
2022-10-18T03:47:22.793Z,10.14
2022-10-18T03:47:53.373Z,10.13
2022-10-18T03:48:23.952Z,10.10
2022-10-18T03:48:54.527Z,10.09
2022-10-18T03:49:25.118Z,10.09
2022-10-18T03:49:57.221Z,10.06
2022-10-18T03:50:26.474Z,10.07
2022-10-18T03:50:57.056Z,10.09
2022-10-18T03:51:27.648Z,10.07
2022-10-18T03:51:58.251Z,10.09
2022-10-18T03:52:28.968Z,10.09
2022-10-18T03:52:59.585Z,10.09
2022-10-18T03:53:30.162Z,10.10
2022-10-18T03:54:00.739Z,10.11
2022-10-18T03:54:31.268Z,10.11
2022-10-18T03:55:01.863Z,10.09
2022-10-18T03:55:32.434Z,10.11
2022-10-18T03:56:03.023Z,10.10
2022-10-18T03:56:33.609Z,10.10
2022-10-18T03:57:04.166Z,10.13
2022-10-18T03:57:34.744Z,10.16
2022-10-18T03:58:05.336Z,10.17
2022-10-18T03:58:35.899Z,10.22
2022-10-18T03:59:06.487Z,10.25
2022-10-18T03:59:37.064Z,10.28
2022-10-18T04:00:07.640Z,10.29
2022-10-18T04:00:38.206Z,10.31
2022-10-18T04:01:08.767Z,10.32
2022-10-18T04:01:39.448Z,10.34
2022-10-18T04:02:10.085Z,10.38
2022-10-18T04:02:40.661Z,10.39
2022-10-18T04:03:11.202Z,10.36
2022-10-18T04:03:41.781Z,10.39
2022-10-18T04:04:12.371Z,10.42
2022-10-18T04:04:42.925Z,10.44
2022-10-18T04:05:13.526Z,10.47
2022-10-18T04:05:44.067Z,10.49
2022-10-18T04:06:14.630Z,10.49
2022-10-18T04:06:45.210Z,10.49
2022-10-18T04:07:15.774Z,10.49
2022-10-18T04:07:46.355Z,10.52
2022-10-18T04:08:16.932Z,10.51
2022-10-18T04:08:47.524Z,10.51
2022-10-18T04:09:18.115Z,10.49
2022-10-18T04:09:48.695Z,10.46
2022-10-18T04:10:19.312Z,10.47
2022-10-18T04:10:49.883Z,10.51
2022-10-18T04:11:20.479Z,10.52
2022-10-18T04:11:51.035Z,10.52
2022-10-18T04:12:21.607Z,10.52
2022-10-18T04:12:52.199Z,10.54
2022-10-18T04:13:22.729Z,10.54
2022-10-18T04:13:53.302Z,10.55
2022-10-18T04:14:23.864Z,10.55
2022-10-18T04:14:55.732Z,10.54
2022-10-18T04:15:25.301Z,10.57
2022-10-18T04:15:55.889Z,10.57
2022-10-18T04:16:26.524Z,10.55
2022-10-18T04:16:57.137Z,10.55
2022-10-18T04:17:27.685Z,10.57
2022-10-18T04:17:58.260Z,10.63
2022-10-18T04:18:28.854Z,10.65
2022-10-18T04:18:59.420Z,10.68
2022-10-18T04:19:29.973Z,10.69
2022-10-18T04:20:00.531Z,10.72
2022-10-18T04:20:31.161Z,10.73
2022-10-18T04:21:01.698Z,10.76
2022-10-18T04:21:32.281Z,10.76
2022-10-18T04:22:02.870Z,10.73
2022-10-18T04:22:33.405Z,10.72
2022-10-18T04:23:03.993Z,10.70
2022-10-18T04:23:37.887Z,10.69
2022-10-18T04:24:05.257Z,10.66
2022-10-18T04:24:35.828Z,10.65
2022-10-18T04:25:06.379Z,10.65
2022-10-18T04:25:37.021Z,10.63
2022-10-18T04:26:07.592Z,10.62
2022-10-18T04:26:38.205Z,10.60
2022-10-18T04:27:08.766Z,10.60
2022-10-18T04:27:39.342Z,10.60
2022-10-18T04:28:09.897Z,10.60
2022-10-18T04:28:40.593Z,10.60
2022-10-18T04:29:11.254Z,10.60
2022-10-18T04:29:41.821Z,10.62
2022-10-18T04:30:12.395Z,10.63
2022-10-18T04:30:42.985Z,10.63
2022-10-18T04:31:13.561Z,10.66
2022-10-18T04:31:44.138Z,10.66
2022-10-18T04:32:14.739Z,10.69
2022-10-18T04:32:45.358Z,10.70
2022-10-18T04:33:15.948Z,10.70
2022-10-18T04:33:46.562Z,10.70
2022-10-18T04:34:17.104Z,10.72
2022-10-18T04:34:47.699Z,10.75
2022-10-18T04:35:18.256Z,10.76
2022-10-18T04:35:48.849Z,10.78
2022-10-18T04:36:19.406Z,10.80
2022-10-18T04:36:49.978Z,10.83
2022-10-18T04:37:20.581Z,10.84
2022-10-18T04:37:51.172Z,10.84
2022-10-18T04:38:21.713Z,10.86
2022-10-18T04:38:52.289Z,10.84
2022-10-18T04:39:22.856Z,10.83
2022-10-18T04:39:53.889Z,10.84
2022-10-18T04:40:24.008Z,10.83
2022-10-18T04:40:54.582Z,10.81
2022-10-18T04:41:25.175Z,10.81
2022-10-18T04:41:55.762Z,10.81
2022-10-18T04:42:26.339Z,10.81
2022-10-18T04:42:56.914Z,10.81
2022-10-18T04:43:27.550Z,10.84
2022-10-18T04:43:58.099Z,10.86
2022-10-18T04:44:28.659Z,10.84
2022-10-18T04:44:59.230Z,10.87
2022-10-18T04:45:29.807Z,10.87
2022-10-18T04:46:00.373Z,10.88
2022-10-18T04:46:30.976Z,10.87
2022-10-18T04:47:01.570Z,10.88
2022-10-18T04:47:32.376Z,10.88
2022-10-18T04:48:03.169Z,10.86
2022-10-18T04:48:33.729Z,10.86
2022-10-18T04:49:04.322Z,10.87
2022-10-18T04:49:34.911Z,10.84
2022-10-18T04:50:05.479Z,10.84
2022-10-18T04:50:36.062Z,10.83
2022-10-18T04:51:06.704Z,10.83
2022-10-18T04:51:37.241Z,10.83
2022-10-18T04:52:07.846Z,10.81
2022-10-18T04:52:38.441Z,10.83
2022-10-18T04:53:08.988Z,10.83
2022-10-18T04:53:39.582Z,10.83
2022-10-18T04:54:10.160Z,10.83
2022-10-18T04:54:40.760Z,10.86
2022-10-18T04:55:11.333Z,10.88
2022-10-18T04:55:41.931Z,10.88
2022-10-18T04:56:12.545Z,10.90
2022-10-18T04:56:43.131Z,10.90
2022-10-18T04:57:13.665Z,10.90
2022-10-18T04:57:44.220Z,10.94
2022-10-18T04:58:14.809Z,10.95
2022-10-18T04:58:45.388Z,10.95
2022-10-18T04:59:15.973Z,10.98
2022-10-18T04:59:46.566Z,10.98
2022-10-18T05:00:17.147Z,10.98
2022-10-18T05:00:47.717Z,10.99
2022-10-18T05:01:18.357Z,10.98
2022-10-18T05:01:49.093Z,10.98
2022-10-18T05:02:19.694Z,10.95
2022-10-18T05:02:50.271Z,10.95
2022-10-18T05:03:20.864Z,10.94
2022-10-18T05:03:51.426Z,10.93
2022-10-18T05:04:21.974Z,10.93
2022-10-18T05:04:52.584Z,10.93
2022-10-18T05:05:26.985Z,10.91
2022-10-18T05:06:01.786Z,10.91
2022-10-18T05:06:24.745Z,10.90
2022-10-18T05:06:55.296Z,10.88
2022-10-18T05:07:25.871Z,10.88
2022-10-18T05:07:56.574Z,10.91
2022-10-18T05:08:27.154Z,10.90
2022-10-18T05:08:58.152Z,10.88
2022-10-18T05:09:28.742Z,10.90
2022-10-18T05:10:02.494Z,10.90
2022-10-18T05:10:31.474Z,10.90
2022-10-18T05:11:00.663Z,10.91
2022-10-18T05:11:31.635Z,10.94
2022-10-18T05:12:02.335Z,10.95
2022-10-18T05:12:33.434Z,10.98
2022-10-18T05:13:03.863Z,10.95
2022-10-18T05:13:34.609Z,11.01
2022-10-18T05:14:05.247Z,11.01
2022-10-18T05:14:35.878Z,11.02
2022-10-18T05:15:06.498Z,11.01
2022-10-18T05:15:37.136Z,11.03
2022-10-18T05:16:07.696Z,11.03
2022-10-18T05:16:38.268Z,11.05
2022-10-18T05:17:08.816Z,11.03
2022-10-18T05:17:39.407Z,11.05
2022-10-18T05:18:09.936Z,11.05
2022-10-18T05:18:40.487Z,11.08
2022-10-18T05:19:11.019Z,11.06
2022-10-18T05:19:42.068Z,11.06
2022-10-18T05:20:43.128Z,11.08
2022-10-18T05:21:13.688Z,11.06
2022-10-18T05:21:44.297Z,11.08
2022-10-18T05:22:14.831Z,11.08
2022-10-18T05:22:45.421Z,11.09
2022-10-18T05:23:16.017Z,11.12
2022-10-18T05:23:46.544Z,11.11
2022-10-18T05:24:17.065Z,11.12
2022-10-18T05:24:47.586Z,11.13
2022-10-18T05:25:18.174Z,11.12
2022-10-18T05:25:48.724Z,11.13
2022-10-18T05:26:19.245Z,11.12
2022-10-18T05:26:49.782Z,11.11
2022-10-18T05:27:20.809Z,11.11
2022-10-18T05:27:51.837Z,11.09
2022-10-18T05:28:40.082Z,11.08
2022-10-18T05:28:53.652Z,11.08
2022-10-18T05:29:24.388Z,11.09
2022-10-18T05:29:54.970Z,11.08
2022-10-18T05:30:26.006Z,11.05
2022-10-18T05:30:57.039Z,11.09
2022-10-18T05:31:27.574Z,11.08
2022-10-18T05:31:58.084Z,11.06
2022-10-18T05:32:28.758Z,11.08
2022-10-18T05:32:59.275Z,11.09
2022-10-18T05:33:30.374Z,11.09
2022-10-18T05:34:00.859Z,11.08
2022-10-18T05:34:31.403Z,11.08
2022-10-18T05:35:01.922Z,11.09
2022-10-18T05:35:32.945Z,11.09
2022-10-18T05:36:03.475Z,11.11
2022-10-18T05:36:34.515Z,11.12
2022-10-18T05:37:05.068Z,11.13
2022-10-18T05:37:35.562Z,11.11
2022-10-18T05:38:06.109Z,11.12
2022-10-18T05:39:07.138Z,11.09
2022-10-18T05:39:38.166Z,11.09
2022-10-18T05:40:09.162Z,11.06
2022-10-18T05:40:39.788Z,11.05
2022-10-18T05:41:10.385Z,11.03
2022-10-18T05:41:41.024Z,11.02
2022-10-18T05:42:11.510Z,11.01
2022-10-18T05:42:42.539Z,10.99
2022-10-18T05:43:13.046Z,10.99
2022-10-18T05:43:43.595Z,10.99
2022-10-18T05:44:14.117Z,10.99
2022-10-18T05:44:44.638Z,10.99
2022-10-18T05:45:15.663Z,10.98
2022-10-18T05:45:46.235Z,10.98
2022-10-18T05:46:16.764Z,10.99
2022-10-18T05:46:47.815Z,10.99
2022-10-18T05:47:18.351Z,10.99
2022-10-18T05:47:48.879Z,11.01
2022-10-18T05:48:19.439Z,11.01
2022-10-18T05:48:50.000Z,11.01
2022-10-18T05:49:20.509Z,11.02
2022-10-18T05:49:51.569Z,11.02
2022-10-18T05:50:22.107Z,11.01
2022-10-18T05:50:52.735Z,11.03
2022-10-18T05:51:23.214Z,11.03
2022-10-18T05:51:54.240Z,11.03
2022-10-18T05:52:25.287Z,11.05
2022-10-18T05:53:02.635Z,11.06
2022-10-18T05:53:38.785Z,11.06
2022-10-18T05:53:57.783Z,11.08
2022-10-18T05:54:28.786Z,11.08
2022-10-18T05:54:59.814Z,11.08
2022-10-18T05:55:30.852Z,11.09
2022-10-18T05:56:01.475Z,11.08
2022-10-18T05:56:32.056Z,11.12
2022-10-18T05:57:02.649Z,11.13
2022-10-18T05:57:33.564Z,11.16
2022-10-18T05:58:03.741Z,11.17
2022-10-18T05:58:34.782Z,11.19
2022-10-18T05:59:05.309Z,11.17
2022-10-18T05:59:36.472Z,11.17
2022-10-18T06:00:07.054Z,11.21
2022-10-18T06:00:37.638Z,11.20
2022-10-18T06:01:08.133Z,11.23
2022-10-18T06:01:39.179Z,11.21
2022-10-18T06:02:09.725Z,11.23
2022-10-18T06:02:40.302Z,11.23
2022-10-18T06:03:10.830Z,11.24
2022-10-18T06:03:41.416Z,11.24
2022-10-18T06:04:11.950Z,11.27
2022-10-18T06:04:43.256Z,11.26
2022-10-18T06:05:13.290Z,11.27
2022-10-18T06:05:43.814Z,11.24
2022-10-18T06:06:14.450Z,11.24
2022-10-18T06:06:44.979Z,11.26
2022-10-18T06:07:16.004Z,11.24
2022-10-18T06:07:47.030Z,11.24
2022-10-18T06:08:17.547Z,11.24
2022-10-18T06:08:48.066Z,11.24
2022-10-18T06:09:19.078Z,11.26
2022-10-18T06:09:50.117Z,11.27
2022-10-18T06:10:21.163Z,11.26
2022-10-18T06:10:51.692Z,11.26
2022-10-18T06:11:22.704Z,11.27
2022-10-18T06:11:53.238Z,11.26
2022-10-18T06:12:23.761Z,11.28
2022-10-18T06:12:54.285Z,11.30
2022-10-18T06:13:25.315Z,11.27
2022-10-18T06:13:55.821Z,11.27
2022-10-18T06:14:26.962Z,11.28
2022-10-18T06:14:57.499Z,11.30
2022-10-18T06:15:28.014Z,11.28
2022-10-18T06:15:58.550Z,11.30
2022-10-18T06:16:32.435Z,11.31
2022-10-18T06:16:59.624Z,11.31
2022-10-18T06:17:32.478Z,11.30
2022-10-18T06:18:01.111Z,11.33
2022-10-18T06:18:31.628Z,11.36
2022-10-18T06:19:02.144Z,11.35
2022-10-18T06:19:32.679Z,11.36
2022-10-18T06:20:03.200Z,11.38
2022-10-18T06:20:34.257Z,11.39
2022-10-18T06:21:04.821Z,11.39
2022-10-18T06:21:35.306Z,11.39
2022-10-18T06:22:05.966Z,11.39
2022-10-18T06:22:36.489Z,11.41
2022-10-18T06:23:07.049Z,11.38
2022-10-18T06:23:37.546Z,11.39
2022-10-18T06:24:08.554Z,11.36
2022-10-18T06:24:39.572Z,11.36
2022-10-18T06:25:10.093Z,11.36
2022-10-18T06:25:40.646Z,11.35
2022-10-18T06:26:11.170Z,11.36
2022-10-18T06:26:42.198Z,11.36
2022-10-18T06:27:13.239Z,11.38
2022-10-18T06:27:43.884Z,11.38
2022-10-18T06:28:14.433Z,11.38
2022-10-18T06:28:45.532Z,11.38
2022-10-18T06:29:16.058Z,11.38
2022-10-18T06:29:46.582Z,11.39
2022-10-18T06:30:17.630Z,11.42
2022-10-18T06:30:48.179Z,11.44
2022-10-18T06:31:18.821Z,11.42
2022-10-18T06:31:49.342Z,11.45
2022-10-18T06:32:20.375Z,11.44
2022-10-18T06:32:51.389Z,11.45
2022-10-18T06:33:22.411Z,11.48
2022-10-18T06:33:52.935Z,11.49
2022-10-18T06:34:23.484Z,11.53
2022-10-18T06:34:54.046Z,11.53
2022-10-18T06:35:25.052Z,11.54
2022-10-18T06:35:55.578Z,11.56